createdAt,value
2017-08-10T00:00:03.387Z,0
2017-08-10T00:01:15.346Z,0
2017-08-10T00:02:27.897Z,0
2017-08-10T00:03:40.525Z,0
2017-08-10T00:04:52.503Z,0
2017-08-10T00:06:05.050Z,0
2017-08-10T00:07:17.376Z,0
2017-08-10T00:08:30.027Z,0
2017-08-10T00:09:42.576Z,0
2017-08-10T00:10:55.164Z,0
2017-08-10T00:12:08.033Z,0
2017-08-10T00:13:20.336Z,0
2017-08-10T00:14:32.974Z,0
2017-08-10T00:15:45.577Z,0
2017-08-10T00:16:58.198Z,0
2017-08-10T00:18:10.457Z,0
2017-08-10T00:19:22.460Z,0
2017-08-10T00:20:35.052Z,0
2017-08-10T00:21:47.626Z,0
2017-08-10T00:23:00.451Z,0
2017-08-10T00:24:13.066Z,0
2017-08-10T00:25:25.089Z,0
2017-08-10T00:26:37.691Z,0
2017-08-10T00:27:50.259Z,0
2017-08-10T00:29:02.885Z,0
2017-08-10T00:30:15.531Z,0
2017-08-10T00:31:27.836Z,0
2017-08-10T00:32:40.476Z,0
2017-08-10T00:33:53.036Z,0
2017-08-10T00:35:05.642Z,0
2017-08-10T00:36:18.271Z,0
2017-08-10T00:37:30.592Z,0
2017-08-10T00:38:43.430Z,0
2017-08-10T00:39:55.385Z,0
2017-08-10T00:41:07.662Z,0
2017-08-10T00:42:20.252Z,0
2017-08-10T00:43:32.883Z,0
2017-08-10T00:44:45.188Z,0
2017-08-10T00:45:57.444Z,0
2017-08-10T00:47:09.725Z,0
2017-08-10T00:48:22.349Z,0
2017-08-10T00:49:34.901Z,0
2017-08-10T00:50:47.190Z,0
2017-08-10T00:51:59.225Z,0
2017-08-10T00:53:11.881Z,0
2017-08-10T00:54:24.135Z,0
2017-08-10T00:55:36.423Z,0
2017-08-10T00:56:48.694Z,0
2017-08-10T00:58:00.957Z,0
2017-08-10T00:59:13.230Z,0
2017-08-10T01:00:25.544Z,0
2017-08-10T01:01:38.177Z,0
2017-08-10T01:02:50.514Z,0
2017-08-10T01:04:02.488Z,0
2017-08-10T01:05:14.749Z,0
2017-08-10T01:06:27.356Z,0
2017-08-10T01:07:39.694Z,0
2017-08-10T01:08:52.036Z,0
2017-08-10T01:10:03.985Z,0
2017-08-10T01:11:16.508Z,0
2017-08-10T01:12:28.509Z,0
2017-08-10T01:13:41.096Z,0
2017-08-10T01:14:53.383Z,0
2017-08-10T01:16:05.687Z,0
2017-08-10T01:17:17.985Z,0
2017-08-10T01:18:30.310Z,0
2017-08-10T01:19:42.592Z,0
2017-08-10T01:20:55.195Z,0
2017-08-10T01:22:07.481Z,0
2017-08-10T01:23:19.743Z,0
2017-08-10T01:24:32.063Z,0
2017-08-10T01:25:44.033Z,0
2017-08-10T01:26:56.327Z,0
2017-08-10T01:28:08.020Z,0
2017-08-10T01:29:19.975Z,0
2017-08-10T01:30:32.329Z,0
2017-08-10T01:31:44.906Z,0
2017-08-10T01:32:57.207Z,0
2017-08-10T01:34:09.762Z,0
2017-08-10T01:35:22.048Z,0
2017-08-10T01:36:34.596Z,0
2017-08-10T01:37:46.912Z,0
2017-08-10T01:38:58.836Z,0
2017-08-10T01:40:11.142Z,0
2017-08-10T01:41:23.100Z,0
2017-08-10T01:42:35.750Z,0
2017-08-10T01:43:48.044Z,0
2017-08-10T01:44:59.975Z,0
2017-08-10T01:46:12.547Z,0
2017-08-10T01:47:25.163Z,0
2017-08-10T01:48:37.754Z,0
2017-08-10T01:49:50.294Z,0
2017-08-10T01:51:02.619Z,0
2017-08-10T01:52:15.221Z,0
2017-08-10T01:53:27.826Z,0
2017-08-10T01:54:39.813Z,0
2017-08-10T01:55:52.379Z,0
2017-08-10T01:57:04.934Z,0
2017-08-10T01:58:17.605Z,0
2017-08-10T01:59:29.643Z,0
2017-08-10T02:00:41.635Z,0
2017-08-10T02:01:53.949Z,0
2017-08-10T02:03:06.244Z,0
2017-08-10T02:04:18.505Z,0
2017-08-10T02:05:31.104Z,0
2017-08-10T02:06:43.052Z,0
2017-08-10T02:07:55.661Z,0
2017-08-10T02:09:08.294Z,0
2017-08-10T02:10:20.587Z,0
2017-08-10T02:11:33.100Z,0
2017-08-10T02:12:45.673Z,0
2017-08-10T02:13:57.992Z,0
2017-08-10T02:15:10.280Z,0
2017-08-10T02:16:22.834Z,0
2017-08-10T02:17:35.420Z,0
2017-08-10T02:18:47.750Z,0
2017-08-10T02:20:00.038Z,0
2017-08-10T02:21:12.669Z,0
2017-08-10T02:22:25.339Z,0
2017-08-10T02:23:37.922Z,0
2017-08-10T02:24:50.529Z,0
2017-08-10T02:26:02.561Z,0
2017-08-10T02:27:15.177Z,0
2017-08-10T02:28:27.743Z,0
2017-08-10T02:29:39.999Z,0
2017-08-10T02:30:52.563Z,0
2017-08-10T02:32:04.530Z,0
2017-08-10T02:33:17.383Z,0
2017-08-10T02:34:29.346Z,0
2017-08-10T02:35:41.920Z,0
2017-08-10T02:36:53.870Z,0
2017-08-10T02:38:06.124Z,0
2017-08-10T02:39:17.460Z,0
2017-08-10T02:40:29.713Z,0
2017-08-10T02:41:42.340Z,0
2017-08-10T02:42:54.967Z,0
2017-08-10T02:44:07.274Z,0
2017-08-10T02:45:19.294Z,0
2017-08-10T02:46:31.920Z,0
2017-08-10T02:47:44.520Z,0
2017-08-10T02:48:56.834Z,0
2017-08-10T02:50:09.474Z,0
2017-08-10T02:51:21.477Z,0
2017-08-10T02:52:34.116Z,0
2017-08-10T02:53:46.389Z,0
2017-08-10T02:54:58.705Z,0
2017-08-10T02:56:10.972Z,0
2017-08-10T02:57:23.199Z,0
2017-08-10T02:58:35.568Z,0
2017-08-10T02:59:47.818Z,0
2017-08-10T03:01:00.110Z,0
2017-08-10T03:02:12.384Z,0
2017-08-10T03:03:25.023Z,0
2017-08-10T03:04:37.232Z,0
2017-08-10T03:05:49.793Z,0
2017-08-10T03:07:02.404Z,0
2017-08-10T03:08:14.657Z,0
2017-08-10T03:09:26.956Z,0
2017-08-10T03:10:39.542Z,0
2017-08-10T03:11:51.911Z,0
2017-08-10T03:13:04.176Z,0
2017-08-10T03:14:15.894Z,0
2017-08-10T03:15:28.551Z,0
2017-08-10T03:16:40.578Z,0
2017-08-10T03:17:53.235Z,0
2017-08-10T03:19:05.815Z,0
2017-08-10T03:20:18.067Z,0
2017-08-10T03:21:30.651Z,0
2017-08-10T03:22:43.244Z,0
2017-08-10T03:23:55.855Z,0
2017-08-10T03:25:08.411Z,0
2017-08-10T03:26:20.702Z,0
2017-08-10T03:27:32.995Z,0
2017-08-10T03:28:45.011Z,0
2017-08-10T03:29:57.039Z,0
2017-08-10T03:31:09.628Z,0
2017-08-10T03:32:22.200Z,0
2017-08-10T03:33:34.814Z,0
2017-08-10T03:34:47.083Z,0
2017-08-10T03:35:59.643Z,0
2017-08-10T03:37:12.295Z,0
2017-08-10T03:38:24.961Z,0
2017-08-10T03:39:37.581Z,0
2017-08-10T03:40:50.189Z,5
2017-08-10T03:42:02.191Z,5
2017-08-10T03:43:14.738Z,5
2017-08-10T03:44:27.040Z,5
2017-08-10T03:45:39.667Z,5
2017-08-10T03:46:52.244Z,5
2017-08-10T03:48:04.547Z,10
2017-08-10T03:49:17.123Z,10
2017-08-10T03:50:29.730Z,10
2017-08-10T03:51:41.759Z,15
2017-08-10T03:52:54.310Z,15
2017-08-10T03:54:06.956Z,15
2017-08-10T03:55:19.534Z,20
2017-08-10T03:56:32.122Z,20
2017-08-10T03:57:44.680Z,20
2017-08-10T03:58:56.640Z,20
2017-08-10T04:00:08.598Z,20
2017-08-10T04:01:20.876Z,20
2017-08-10T04:02:32.847Z,20
2017-08-10T04:03:45.172Z,20
2017-08-10T04:04:57.697Z,25
2017-08-10T04:06:10.352Z,35
2017-08-10T04:07:22.043Z,35
2017-08-10T04:08:34.327Z,40
2017-08-10T04:09:46.877Z,45
2017-08-10T04:10:59.194Z,45
2017-08-10T04:12:11.129Z,45
2017-08-10T04:13:23.753Z,50
2017-08-10T04:14:36.099Z,50
2017-08-10T04:15:48.731Z,50
2017-08-10T04:17:00.967Z,45
2017-08-10T04:18:13.300Z,40
2017-08-10T04:19:25.840Z,35
2017-08-10T04:20:37.846Z,35
2017-08-10T04:21:50.237Z,35
2017-08-10T04:23:02.785Z,40
2017-08-10T04:24:15.353Z,45
2017-08-10T04:25:27.650Z,45
2017-08-10T04:26:39.866Z,55
2017-08-10T04:27:52.405Z,55
2017-08-10T04:29:05.037Z,60
2017-08-10T04:30:17.309Z,60
2017-08-10T04:31:29.898Z,55
2017-08-10T04:32:42.447Z,55
2017-08-10T04:33:55.025Z,55
2017-08-10T04:35:07.340Z,55
2017-08-10T04:36:19.913Z,50
2017-08-10T04:37:32.547Z,50
2017-08-10T04:38:45.154Z,50
2017-08-10T04:39:57.726Z,50
2017-08-10T04:41:10.073Z,50
2017-08-10T04:42:22.691Z,50
2017-08-10T04:43:35.264Z,50
2017-08-10T04:44:47.623Z,50
2017-08-10T04:46:00.199Z,50
2017-08-10T04:47:12.837Z,50
2017-08-10T04:48:25.068Z,50
2017-08-10T04:49:37.298Z,55
2017-08-10T04:50:49.634Z,60
2017-08-10T04:52:01.905Z,65
2017-08-10T04:53:13.613Z,70
2017-08-10T04:54:25.897Z,70
2017-08-10T04:55:38.510Z,75
2017-08-10T04:56:50.842Z,80
2017-08-10T04:58:03.137Z,85
2017-08-10T04:59:15.408Z,85
2017-08-10T05:00:28.008Z,90
2017-08-10T05:01:39.948Z,95
2017-08-10T05:02:52.543Z,100
2017-08-10T05:04:04.796Z,100
2017-08-10T05:05:17.012Z,100
2017-08-10T05:06:29.592Z,100
2017-08-10T05:07:42.177Z,105
2017-08-10T05:08:54.113Z,110
2017-08-10T05:10:06.453Z,110
2017-08-10T05:11:18.433Z,105
2017-08-10T05:12:31.017Z,105
2017-08-10T05:13:43.661Z,105
2017-08-10T05:14:56.234Z,110
2017-08-10T05:16:08.525Z,115
2017-08-10T05:17:20.799Z,115
2017-08-10T05:18:33.369Z,105
2017-08-10T05:19:45.923Z,100
2017-08-10T05:20:58.600Z,95
2017-08-10T05:22:10.240Z,90
2017-08-10T05:23:22.803Z,95
2017-08-10T05:24:35.104Z,100
2017-08-10T05:25:47.727Z,110
2017-08-10T05:27:00.098Z,120
2017-08-10T05:28:12.671Z,125
2017-08-10T05:29:25.286Z,125
2017-08-10T05:30:37.573Z,120
2017-08-10T05:31:50.474Z,115
2017-08-10T05:33:03.091Z,115
2017-08-10T05:34:15.050Z,115
2017-08-10T05:35:27.621Z,125
2017-08-10T05:36:40.291Z,130
2017-08-10T05:37:52.592Z,130
2017-08-10T05:39:04.897Z,130
2017-08-10T05:40:16.855Z,125
2017-08-10T05:41:29.444Z,120
2017-08-10T05:42:42.045Z,110
2017-08-10T05:43:54.330Z,105
2017-08-10T05:45:06.602Z,110
2017-08-10T05:46:18.879Z,125
2017-08-10T05:47:31.536Z,150
2017-08-10T05:48:43.867Z,185
2017-08-10T05:49:56.491Z,225
2017-08-10T05:51:09.106Z,250
2017-08-10T05:52:21.657Z,255
2017-08-10T05:53:34.209Z,245
2017-08-10T05:54:46.794Z,240
2017-08-10T05:55:59.364Z,240
2017-08-10T05:57:11.701Z,250
2017-08-10T05:58:24.260Z,255
2017-08-10T05:59:36.863Z,260
2017-08-10T06:00:49.166Z,255
2017-08-10T06:02:01.726Z,255
2017-08-10T06:03:13.954Z,250
2017-08-10T06:04:26.263Z,240
2017-08-10T06:05:38.556Z,230
2017-08-10T06:06:50.817Z,225
2017-08-10T06:08:03.473Z,220
2017-08-10T06:09:16.061Z,220
2017-08-10T06:10:28.622Z,215
2017-08-10T06:11:41.244Z,215
2017-08-10T06:12:53.857Z,220
2017-08-10T06:14:06.502Z,225
2017-08-10T06:15:18.481Z,220
2017-08-10T06:16:30.787Z,215
2017-08-10T06:17:43.420Z,215
2017-08-10T06:18:55.991Z,220
2017-08-10T06:20:08.501Z,220
2017-08-10T06:21:20.721Z,235
2017-08-10T06:22:32.999Z,245
2017-08-10T06:23:45.623Z,255
2017-08-10T06:24:58.151Z,265
2017-08-10T06:26:10.138Z,275
2017-08-10T06:27:22.736Z,280
2017-08-10T06:28:35.035Z,290
2017-08-10T06:29:47.362Z,295
2017-08-10T06:30:59.945Z,300
2017-08-10T06:32:11.594Z,310
2017-08-10T06:33:23.849Z,320
2017-08-10T06:34:36.498Z,325
2017-08-10T06:35:49.093Z,330
2017-08-10T06:37:01.735Z,345
2017-08-10T06:38:14.308Z,355
2017-08-10T06:39:26.897Z,350
2017-08-10T06:40:38.966Z,335
2017-08-10T06:41:51.552Z,315
2017-08-10T06:43:04.156Z,305
2017-08-10T06:44:16.413Z,310
2017-08-10T06:45:29.023Z,325
2017-08-10T06:46:41.610Z,345
2017-08-10T06:47:54.167Z,370
2017-08-10T06:49:06.814Z,390
2017-08-10T06:50:18.802Z,390
2017-08-10T06:51:31.334Z,395
2017-08-10T06:52:43.958Z,395
2017-08-10T06:53:56.225Z,420
2017-08-10T06:55:08.563Z,465
2017-08-10T06:56:20.849Z,525
2017-08-10T06:57:33.482Z,555
2017-08-10T06:58:45.727Z,570
2017-08-10T06:59:57.685Z,585
2017-08-10T07:01:10.267Z,605
2017-08-10T07:02:22.621Z,595
2017-08-10T07:03:34.893Z,590
2017-08-10T07:04:47.455Z,550
2017-08-10T07:05:59.405Z,495
2017-08-10T07:07:11.974Z,430
2017-08-10T07:08:24.558Z,370
2017-08-10T07:09:37.133Z,345
2017-08-10T07:10:49.429Z,325
2017-08-10T07:12:01.737Z,310
2017-08-10T07:13:14.311Z,320
2017-08-10T07:14:26.680Z,340
2017-08-10T07:15:38.973Z,355
2017-08-10T07:16:51.640Z,340
2017-08-10T07:18:03.947Z,350
2017-08-10T07:19:15.358Z,375
2017-08-10T07:20:27.996Z,405
2017-08-10T07:21:40.304Z,430
2017-08-10T07:22:52.936Z,450
2017-08-10T07:24:05.243Z,455
2017-08-10T07:25:17.829Z,475
2017-08-10T07:26:30.126Z,500
2017-08-10T07:27:42.730Z,530
2017-08-10T07:28:55.353Z,595
2017-08-10T07:30:08.001Z,640
2017-08-10T07:31:20.573Z,590
2017-08-10T07:32:33.139Z,460
2017-08-10T07:33:45.782Z,385
2017-08-10T07:34:58.439Z,360
2017-08-10T07:36:10.132Z,340
2017-08-10T07:37:22.425Z,335
2017-08-10T07:38:34.092Z,335
2017-08-10T07:39:46.616Z,345
2017-08-10T07:40:59.190Z,360
2017-08-10T07:42:11.456Z,400
2017-08-10T07:43:23.451Z,450
2017-08-10T07:44:35.783Z,455
2017-08-10T07:45:48.381Z,455
2017-08-10T07:47:00.627Z,455
2017-08-10T07:48:12.609Z,455
2017-08-10T07:49:25.205Z,445
2017-08-10T07:50:37.772Z,440
2017-08-10T07:51:50.104Z,445
2017-08-10T07:53:02.401Z,495
2017-08-10T07:54:14.970Z,590
2017-08-10T07:55:27.570Z,650
2017-08-10T07:56:39.898Z,715
2017-08-10T07:57:51.902Z,825
2017-08-10T07:59:04.524Z,900
2017-08-10T08:00:16.875Z,940
2017-08-10T08:01:29.195Z,970
2017-08-10T08:02:41.510Z,1020
2017-08-10T08:03:53.807Z,1060
2017-08-10T08:05:06.053Z,1085
2017-08-10T08:06:18.386Z,1110
2017-08-10T08:07:31.074Z,1090
2017-08-10T08:08:43.339Z,975
2017-08-10T08:09:55.962Z,835
2017-08-10T08:11:08.532Z,775
2017-08-10T08:12:21.085Z,730
2017-08-10T08:13:33.661Z,685
2017-08-10T08:14:45.994Z,640
2017-08-10T08:15:58.284Z,625
2017-08-10T08:17:10.861Z,625
2017-08-10T08:18:23.136Z,625
2017-08-10T08:19:35.356Z,620
2017-08-10T08:20:47.942Z,625
2017-08-10T08:22:00.536Z,615
2017-08-10T08:23:12.572Z,615
2017-08-10T08:24:25.181Z,650
2017-08-10T08:25:37.442Z,695
2017-08-10T08:26:50.066Z,730
2017-08-10T08:28:02.743Z,740
2017-08-10T08:29:15.304Z,720
2017-08-10T08:30:27.873Z,685
2017-08-10T08:31:40.170Z,635
2017-08-10T08:32:52.786Z,600
2017-08-10T08:34:05.039Z,580
2017-08-10T08:35:17.337Z,605
2017-08-10T08:36:29.997Z,675
2017-08-10T08:37:42.279Z,770
2017-08-10T08:38:54.866Z,835
2017-08-10T08:40:07.158Z,885
2017-08-10T08:41:19.803Z,915
2017-08-10T08:42:32.429Z,890
2017-08-10T08:43:45.055Z,850
2017-08-10T08:44:57.669Z,820
2017-08-10T08:46:10.246Z,810
2017-08-10T08:47:22.876Z,810
2017-08-10T08:48:35.144Z,810
2017-08-10T08:49:47.818Z,785
2017-08-10T08:51:00.416Z,765
2017-08-10T08:52:12.769Z,745
2017-08-10T08:53:24.739Z,720
2017-08-10T08:54:37.045Z,680
2017-08-10T08:55:49.067Z,645
2017-08-10T08:57:01.355Z,615
2017-08-10T08:58:13.636Z,585
2017-08-10T08:59:26.286Z,550
2017-08-10T09:00:38.558Z,550
2017-08-10T09:01:50.766Z,580
2017-08-10T09:03:03.337Z,605
2017-08-10T09:04:15.908Z,650
2017-08-10T09:05:28.541Z,715
2017-08-10T09:06:41.150Z,745
2017-08-10T09:07:53.491Z,760
2017-08-10T09:09:06.036Z,735
2017-08-10T09:10:18.009Z,705
2017-08-10T09:11:30.579Z,705
2017-08-10T09:12:43.180Z,725
2017-08-10T09:13:55.720Z,745
2017-08-10T09:15:07.669Z,770
2017-08-10T09:16:19.940Z,825
2017-08-10T09:17:32.208Z,880
2017-08-10T09:18:44.734Z,945
2017-08-10T09:19:56.990Z,1010
2017-08-10T09:21:09.300Z,1030
2017-08-10T09:22:21.242Z,960
2017-08-10T09:23:33.563Z,865
2017-08-10T09:24:46.113Z,795
2017-08-10T09:25:58.655Z,775
2017-08-10T09:27:10.877Z,805
2017-08-10T09:28:23.224Z,875
2017-08-10T09:29:35.570Z,940
2017-08-10T09:30:47.871Z,1005
2017-08-10T09:32:00.137Z,1110
2017-08-10T09:33:12.786Z,1225
2017-08-10T09:34:24.804Z,1305
2017-08-10T09:35:37.129Z,1340
2017-08-10T09:36:49.423Z,1345
2017-08-10T09:38:01.413Z,1360
2017-08-10T09:39:13.983Z,1355
2017-08-10T09:40:26.604Z,1300
2017-08-10T09:41:38.955Z,1225
2017-08-10T09:42:51.539Z,1165
2017-08-10T09:44:03.843Z,1145
2017-08-10T09:45:16.138Z,1160
2017-08-10T09:46:28.139Z,1170
2017-08-10T09:47:40.412Z,1220
2017-08-10T09:48:52.734Z,1245
2017-08-10T09:50:04.708Z,1295
2017-08-10T09:51:16.696Z,1270
2017-08-10T09:52:28.940Z,1225
2017-08-10T09:53:41.168Z,1165
2017-08-10T09:54:53.809Z,1120
2017-08-10T09:56:06.377Z,1075
2017-08-10T09:57:18.999Z,1275
2017-08-10T09:58:31.597Z,1560
2017-08-10T09:59:43.265Z,1640
2017-08-10T10:00:55.811Z,2115
2017-08-10T10:02:08.412Z,1665
2017-08-10T10:03:20.689Z,1065
2017-08-10T10:04:32.670Z,1780
2017-08-10T10:05:45.025Z,2930
2017-08-10T10:06:57.598Z,2750
2017-08-10T10:08:09.617Z,955
2017-08-10T10:09:22.220Z,910
2017-08-10T10:10:34.552Z,1735
2017-08-10T10:11:46.835Z,1960
2017-08-10T10:12:59.162Z,1615
2017-08-10T10:14:11.466Z,1375
2017-08-10T10:15:24.079Z,1085
2017-08-10T10:16:36.710Z,1115
2017-08-10T10:17:49.307Z,1415
2017-08-10T10:19:01.627Z,2050
2017-08-10T10:20:14.293Z,2195
2017-08-10T10:21:26.907Z,2245
2017-08-10T10:22:39.170Z,2445
2017-08-10T10:23:51.758Z,1595
2017-08-10T10:25:04.048Z,2240
2017-08-10T10:26:16.599Z,1625
2017-08-10T10:27:28.628Z,1940
2017-08-10T10:28:41.243Z,1965
2017-08-10T10:29:53.489Z,1650
2017-08-10T10:31:05.819Z,1600
2017-08-10T10:32:18.161Z,1565
2017-08-10T10:33:30.453Z,1780
2017-08-10T10:34:43.064Z,1475
2017-08-10T10:35:55.083Z,1635
2017-08-10T10:37:07.052Z,1780
2017-08-10T10:38:19.093Z,1595
2017-08-10T10:39:31.421Z,1645
2017-08-10T10:40:43.479Z,1530
2017-08-10T10:41:56.072Z,2010
2017-08-10T10:43:08.395Z,1535
2017-08-10T10:44:20.714Z,3165
2017-08-10T10:45:33.048Z,4055
2017-08-10T10:46:45.697Z,4615
2017-08-10T10:47:57.651Z,4905
2017-08-10T10:49:10.210Z,5380
2017-08-10T10:50:22.848Z,4965
2017-08-10T10:51:35.219Z,4870
2017-08-10T10:52:47.210Z,4535
2017-08-10T10:53:59.557Z,3665
2017-08-10T10:55:11.834Z,3190
2017-08-10T10:56:23.502Z,2845
2017-08-10T10:57:35.772Z,2780
2017-08-10T10:58:48.099Z,3145
2017-08-10T11:00:00.487Z,3535
2017-08-10T11:01:13.088Z,3535
2017-08-10T11:02:25.359Z,3585
2017-08-10T11:03:37.884Z,3655
2017-08-10T11:04:50.525Z,3665
2017-08-10T11:06:02.597Z,3880
2017-08-10T11:07:14.889Z,3890
2017-08-10T11:08:26.566Z,3945
2017-08-10T11:09:38.893Z,3765
2017-08-10T11:10:50.874Z,3650
2017-08-10T11:12:03.186Z,4100
2017-08-10T11:13:15.783Z,3975
2017-08-10T11:14:27.829Z,3760
2017-08-10T11:15:39.517Z,3995
2017-08-10T11:16:51.834Z,3055
2017-08-10T11:18:04.175Z,3685
2017-08-10T11:19:16.493Z,4495
2017-08-10T11:20:28.794Z,4135
2017-08-10T11:21:41.086Z,4135
2017-08-10T11:22:53.410Z,5070
2017-08-10T11:24:05.121Z,4730
2017-08-10T11:25:17.775Z,4570
2017-08-10T11:26:30.361Z,5105
2017-08-10T11:27:43.046Z,3860
2017-08-10T11:28:55.399Z,2830
2017-08-10T11:30:07.685Z,4380
2017-08-10T11:31:20.283Z,5085
2017-08-10T11:32:32.324Z,5025
2017-08-10T11:33:44.947Z,3405
2017-08-10T11:34:57.574Z,1965
2017-08-10T11:36:09.598Z,3635
2017-08-10T11:37:21.585Z,4040
2017-08-10T11:38:33.858Z,3715
2017-08-10T11:39:46.130Z,2925
2017-08-10T11:40:58.751Z,3265
2017-08-10T11:42:11.322Z,2820
2017-08-10T11:43:23.913Z,4035
2017-08-10T11:44:36.062Z,3595
2017-08-10T11:45:48.457Z,4255
2017-08-10T11:47:00.779Z,2700
2017-08-10T11:48:13.081Z,1995
2017-08-10T11:49:25.119Z,1440
2017-08-10T11:50:37.746Z,1590
2017-08-10T11:51:50.416Z,1080
2017-08-10T11:53:03.028Z,1260
2017-08-10T11:54:15.683Z,1400
2017-08-10T11:55:28.276Z,4640
2017-08-10T11:56:40.286Z,4130
2017-08-10T11:57:52.941Z,2080
2017-08-10T11:59:05.581Z,4870
2017-08-10T12:00:17.558Z,4700
2017-08-10T12:01:30.134Z,4735
2017-08-10T12:02:42.704Z,4805
2017-08-10T12:03:55.399Z,4810
2017-08-10T12:05:07.091Z,4425
2017-08-10T12:06:19.320Z,4430
2017-08-10T12:07:31.661Z,4775
2017-08-10T12:08:44.267Z,4705
2017-08-10T12:09:56.948Z,4720
2017-08-10T12:11:08.695Z,4645
2017-08-10T12:12:21.283Z,4595
2017-08-10T12:13:33.593Z,3245
2017-08-10T12:14:45.892Z,4530
2017-08-10T12:15:57.903Z,5015
2017-08-10T12:17:09.927Z,5020
2017-08-10T12:18:22.551Z,4235
2017-08-10T12:19:34.833Z,4640
2017-08-10T12:20:47.480Z,4865
2017-08-10T12:21:59.840Z,4420
2017-08-10T12:23:12.161Z,4055
2017-08-10T12:24:24.535Z,3830
2017-08-10T12:25:36.834Z,4200
2017-08-10T12:26:49.155Z,4340
2017-08-10T12:28:01.718Z,3120
2017-08-10T12:29:14.312Z,2525
2017-08-10T12:30:26.273Z,3660
2017-08-10T12:31:38.528Z,4470
2017-08-10T12:32:50.514Z,4090
2017-08-10T12:34:02.523Z,3605
2017-08-10T12:35:14.825Z,4245
2017-08-10T12:36:26.802Z,4400
2017-08-10T12:37:39.397Z,3510
2017-08-10T12:38:51.418Z,3785
2017-08-10T12:40:04.095Z,2845
2017-08-10T12:41:16.653Z,3675
2017-08-10T12:42:29.267Z,4710
2017-08-10T12:43:41.523Z,2495
2017-08-10T12:44:54.167Z,3785
2017-08-10T12:46:06.505Z,2380
2017-08-10T12:47:18.782Z,3485
2017-08-10T12:48:30.481Z,4350
2017-08-10T12:49:43.072Z,2495
2017-08-10T12:50:55.616Z,3170
2017-08-10T12:52:07.664Z,2535
2017-08-10T12:53:20.303Z,2455
2017-08-10T12:54:32.654Z,3575
2017-08-10T12:55:44.922Z,2570
2017-08-10T12:56:57.215Z,1315
2017-08-10T12:58:09.922Z,1360
2017-08-10T12:59:22.218Z,1280
2017-08-10T13:00:34.846Z,1340
2017-08-10T13:01:47.136Z,3080
2017-08-10T13:02:59.795Z,3565
2017-08-10T13:04:12.342Z,3440
2017-08-10T13:05:24.643Z,3510
2017-08-10T13:06:37.208Z,3050
2017-08-10T13:07:49.535Z,1245
2017-08-10T13:09:01.857Z,1235
2017-08-10T13:10:13.824Z,1230
2017-08-10T13:11:25.793Z,1375
2017-08-10T13:12:38.165Z,2245
2017-08-10T13:13:50.169Z,2025
2017-08-10T13:15:02.758Z,960
2017-08-10T13:16:14.179Z,800
2017-08-10T13:17:26.172Z,1025
2017-08-10T13:18:38.434Z,1195
2017-08-10T13:19:50.743Z,1700
2017-08-10T13:21:02.789Z,1285
2017-08-10T13:22:15.092Z,2540
2017-08-10T13:23:27.481Z,2445
2017-08-10T13:24:40.113Z,3080
2017-08-10T13:25:52.092Z,1090
2017-08-10T13:27:03.750Z,1120
2017-08-10T13:28:16.365Z,1140
2017-08-10T13:29:28.632Z,2710
2017-08-10T13:30:40.918Z,3160
2017-08-10T13:31:53.474Z,1590
2017-08-10T13:33:05.718Z,1230
2017-08-10T13:34:17.989Z,1210
2017-08-10T13:35:30.251Z,1195
2017-08-10T13:36:41.928Z,1520
2017-08-10T13:37:54.607Z,2095
2017-08-10T13:39:06.610Z,1205
2017-08-10T13:40:19.234Z,2505
2017-08-10T13:41:31.513Z,940
2017-08-10T13:42:43.521Z,735
2017-08-10T13:43:55.856Z,2685
2017-08-10T13:45:08.414Z,1255
2017-08-10T13:46:20.979Z,1630
2017-08-10T13:47:33.232Z,3200
2017-08-10T13:48:45.815Z,3310
2017-08-10T13:49:58.487Z,2735
2017-08-10T13:51:10.499Z,2025
2017-08-10T13:52:23.113Z,2035
2017-08-10T13:53:35.744Z,1945
2017-08-10T13:54:47.818Z,1480
2017-08-10T13:56:00.440Z,1500
2017-08-10T13:57:12.759Z,1110
2017-08-10T13:58:25.358Z,800
2017-08-10T13:59:37.935Z,745
2017-08-10T14:00:50.227Z,870
2017-08-10T14:02:02.607Z,825
2017-08-10T14:03:14.926Z,810
2017-08-10T14:04:26.614Z,640
2017-08-10T14:05:39.208Z,505
2017-08-10T14:06:51.852Z,480
2017-08-10T14:08:04.484Z,465
2017-08-10T14:09:16.813Z,460
2017-08-10T14:10:28.502Z,495
2017-08-10T14:11:40.864Z,650
2017-08-10T14:12:53.525Z,925
2017-08-10T14:14:05.782Z,980
2017-08-10T14:15:18.429Z,1820
2017-08-10T14:16:30.997Z,730
2017-08-10T14:17:43.395Z,725
2017-08-10T14:18:56.000Z,695
2017-08-10T14:20:08.642Z,645
2017-08-10T14:21:20.928Z,560
2017-08-10T14:22:32.575Z,580
2017-08-10T14:23:44.907Z,665
2017-08-10T14:24:57.260Z,795
2017-08-10T14:26:09.904Z,865
2017-08-10T14:27:21.890Z,855
2017-08-10T14:28:34.467Z,675
2017-08-10T14:29:46.425Z,540
2017-08-10T14:30:59.026Z,500
2017-08-10T14:32:11.615Z,530
2017-08-10T14:33:24.200Z,570
2017-08-10T14:34:36.819Z,645
2017-08-10T14:35:49.115Z,790
2017-08-10T14:37:01.427Z,665
2017-08-10T14:38:13.472Z,720
2017-08-10T14:39:25.779Z,740
2017-08-10T14:40:38.738Z,755
2017-08-10T14:41:51.052Z,735
2017-08-10T14:43:03.336Z,655
2017-08-10T14:44:15.969Z,595
2017-08-10T14:45:28.276Z,555
2017-08-10T14:46:40.634Z,495
2017-08-10T14:47:52.932Z,440
2017-08-10T14:49:05.247Z,435
2017-08-10T14:50:17.531Z,460
2017-08-10T14:51:30.152Z,515
2017-08-10T14:52:42.498Z,555
2017-08-10T14:53:55.101Z,570
2017-08-10T14:55:07.741Z,565
2017-08-10T14:56:20.348Z,565
2017-08-10T14:57:32.947Z,565
2017-08-10T14:58:44.637Z,555
2017-08-10T14:59:56.951Z,555
2017-08-10T15:01:09.594Z,535
2017-08-10T15:02:22.219Z,505
2017-08-10T15:03:34.567Z,475
2017-08-10T15:04:47.135Z,460
2017-08-10T15:05:59.709Z,440
2017-08-10T15:07:12.353Z,440
2017-08-10T15:08:24.687Z,440
2017-08-10T15:09:36.922Z,430
2017-08-10T15:10:49.224Z,425
2017-08-10T15:12:01.207Z,430
2017-08-10T15:13:13.203Z,445
2017-08-10T15:14:25.776Z,460
2017-08-10T15:15:38.285Z,465
2017-08-10T15:16:50.632Z,465
2017-08-10T15:18:02.927Z,465
2017-08-10T15:19:14.908Z,480
2017-08-10T15:20:27.146Z,480
2017-08-10T15:21:39.799Z,485
2017-08-10T15:22:52.157Z,480
2017-08-10T15:24:04.454Z,475
2017-08-10T15:25:16.714Z,485
2017-08-10T15:26:28.664Z,500
2017-08-10T15:27:40.931Z,495
2017-08-10T15:28:52.901Z,490
2017-08-10T15:30:05.222Z,485
2017-08-10T15:31:17.895Z,485
2017-08-10T15:32:30.180Z,485
2017-08-10T15:33:42.533Z,485
2017-08-10T15:34:54.523Z,495
2017-08-10T15:36:06.776Z,505
2017-08-10T15:37:19.336Z,515
2017-08-10T15:38:31.674Z,515
2017-08-10T15:39:43.928Z,510
2017-08-10T15:40:56.258Z,510
2017-08-10T15:42:08.232Z,515
2017-08-10T15:43:19.889Z,515
2017-08-10T15:44:32.292Z,510
2017-08-10T15:45:44.886Z,490
2017-08-10T15:46:57.137Z,475
2017-08-10T15:48:09.452Z,460
2017-08-10T15:49:21.785Z,430
2017-08-10T15:50:34.383Z,405
2017-08-10T15:51:46.365Z,395
2017-08-10T15:52:58.980Z,365
2017-08-10T15:54:11.668Z,345
2017-08-10T15:55:23.671Z,350
2017-08-10T15:56:35.714Z,350
2017-08-10T15:57:48.281Z,335
2017-08-10T15:59:00.524Z,325
2017-08-10T16:00:13.211Z,325
2017-08-10T16:01:25.565Z,310
2017-08-10T16:02:37.561Z,305
2017-08-10T16:03:50.114Z,325
2017-08-10T16:05:02.733Z,310
2017-08-10T16:06:15.049Z,275
2017-08-10T16:07:27.351Z,260
2017-08-10T16:08:39.728Z,235
2017-08-10T16:09:52.362Z,235
2017-08-10T16:11:04.919Z,245
2017-08-10T16:12:17.257Z,260
2017-08-10T16:13:29.525Z,270
2017-08-10T16:14:41.477Z,260
2017-08-10T16:15:54.127Z,260
2017-08-10T16:17:06.694Z,260
2017-08-10T16:18:19.275Z,265
2017-08-10T16:19:31.554Z,270
2017-08-10T16:20:43.213Z,255
2017-08-10T16:21:55.221Z,250
2017-08-10T16:23:07.477Z,245
2017-08-10T16:24:20.065Z,245
2017-08-10T16:25:32.334Z,245
2017-08-10T16:26:44.921Z,240
2017-08-10T16:27:57.276Z,230
2017-08-10T16:29:09.911Z,225
2017-08-10T16:30:22.216Z,225
2017-08-10T16:31:34.593Z,225
2017-08-10T16:32:46.865Z,200
2017-08-10T16:33:59.537Z,185
2017-08-10T16:35:12.138Z,185
2017-08-10T16:36:24.372Z,180
2017-08-10T16:37:37.003Z,175
2017-08-10T16:38:49.316Z,160
2017-08-10T16:40:01.664Z,165
2017-08-10T16:41:14.280Z,160
2017-08-10T16:42:26.877Z,145
2017-08-10T16:43:38.853Z,125
2017-08-10T16:44:51.160Z,140